Time;durP1;ratioP1;P1;durP2;ratioP2;P2;SDS_P1;SDS_P2;PMS_P1;PMS_P2;Temp;Humidity;BMP_temperature;BMP_pressure;BME280_temperature;BME280_humidity;BME280_pressure;Samples;Min_cycle;Max_cycle;Signal;HPM_P1;HPM_P2
2021/10/21 00:01:00;;;;;;;6.80;6.10;;;;;;;15.48;54.51;99354.84;228893;1196;138389;-76
2021/10/21 00:06:04;;;;;;;6.70;6.00;;;;;;;15.42;54.63;99343.52;229274;1196;138788;-76
2021/10/21 00:11:06;;;;;;;8.50;6.00;;;;;;;15.36;54.90;99335.30;229060;1196;137847;-75
2021/10/21 00:16:08;;;;;;;7.00;6.40;;;;;;;15.33;54.86;99326.34;229670;1196;138052;-74
2021/10/21 00:21:09;;;;;;;7.90;6.80;;;;;;;15.32;54.95;99324.52;229296;1200;137979;-75
2021/10/21 00:26:11;;;;;;;11.50;7.70;;;;;;;15.22;55.24;99325.77;229660;1197;138470;-76
2021/10/21 00:31:13;;;;;;;8.70;6.40;;;;;;;15.23;55.20;99325.56;229769;1196;138175;-75
2021/10/21 00:36:14;;;;;;;6.30;5.80;;;;;;;15.17;55.50;99319.55;229493;1193;137922;-75
2021/10/21 00:41:16;;;;;;;6.60;6.00;;;;;;;15.05;55.95;99308.56;229304;1196;138118;-75
2021/10/21 00:46:18;;;;;;;8.10;6.10;;;;;;;14.96;56.19;99294.35;229370;1196;138532;-71
2021/10/21 00:51:20;;;;;;;6.30;5.70;;;;;;;14.87;56.60;99299.80;229818;1196;137946;-73
2021/10/21 00:56:21;;;;;;;8.80;6.10;;;;;;;14.79;57.08;99295.89;228963;1196;138899;-75
2021/10/21 01:01:24;;;;;;;7.70;6.00;;;;;;;14.68;57.37;99286.45;229014;1196;138262;-75
2021/10/21 01:06:26;;;;;;;6.70;6.00;;;;;;;14.57;57.68;99278.73;229024;1196;138426;-76
2021/10/21 01:11:28;;;;;;;8.10;7.20;;;;;;;14.51;58.00;99274.36;228936;1196;138494;-75
2021/10/21 01:16:29;;;;;;;6.20;5.60;;;;;;;14.47;58.05;99265.26;228796;1196;138989;-74
2021/10/21 01:21:31;;;;;;;6.90;6.20;;;;;;;14.39;58.41;99260.64;229107;1197;138264;-75
2021/10/21 01:26:33;;;;;;;6.60;6.00;;;;;;;14.31;58.88;99263.46;229361;1196;138499;-76
2021/10/21 01:31:36;;;;;;;6.70;6.00;;;;;;;14.27;58.76;99256.80;229802;1196;139245;-75
2021/10/21 01:36:39;;;;;;;8.00;6.50;;;;;;;14.20;58.99;99255.38;228931;1196;138469;-76
2021/10/21 01:41:41;;;;;;;9.70;6.40;;;;;;;14.16;59.22;99246.09;229563;1196;138641;-74
2021/10/21 01:46:42;;;;;;;7.30;6.60;;;;;;;14.09;59.26;99239.54;229913;1196;139082;-75
2021/10/21 01:51:44;;;;;;;8.80;6.60;;;;;;;14.08;59.13;99240.33;229524;1196;138302;-75
2021/10/21 01:56:47;;;;;;;6.40;5.80;;;;;;;14.06;59.33;99234.52;229891;1190;138579;-75
2021/10/21 02:01:48;;;;;;;7.20;6.60;;;;;;;13.97;59.34;99228.25;228829;1196;138368;-76
2021/10/21 02:06:50;;;;;;;8.20;7.20;;;;;;;13.93;59.51;99217.66;228974;1202;138578;-75
2021/10/21 02:11:52;;;;;;;7.30;6.40;;;;;;;13.89;59.55;99205.98;229039;1200;139226;-75
2021/10/21 02:16:54;;;;;;;9.80;7.20;;;;;;;13.87;59.71;99191.77;228993;1197;138599;-75
2021/10/21 02:21:56;;;;;;;7.10;6.40;;;;;;;13.82;59.80;99186.15;228953;1199;138117;-75
2021/10/21 02:26:57;;;;;;;7.20;6.50;;;;;;;13.78;59.72;99176.44;229571;1196;139029;-76
2021/10/21 02:31:59;;;;;;;8.20;7.10;;;;;;;13.73;59.73;99179.86;229708;1196;138204;-75
2021/10/21 02:37:02;;;;;;;8.80;7.60;;;;;;;13.73;59.76;99172.02;229387;1196;138493;-75
2021/10/21 02:42:03;;;;;;;8.40;6.70;;;;;;;13.74;59.86;99154.95;228879;1197;138307;-74
2021/10/21 02:47:05;;;;;;;8.90;7.40;;;;;;;13.73;59.84;99152.04;228893;1196;138329;-76
2021/10/21 02:52:07;;;;;;;10.70;8.00;;;;;;;13.72;59.92;99148.02;228995;1196;138037;-76
2021/10/21 02:57:09;;;;;;;10.00;8.20;;;;;;;13.72;59.89;99142.45;229215;1197;138689;-75
2021/10/21 03:02:11;;;;;;;8.30;7.40;;;;;;;13.71;59.93;99132.42;229157;1197;138518;-75
2021/10/21 03:07:12;;;;;;;8.40;7.60;;;;;;;13.72;60.07;99118.53;229358;1196;138489;-77
2021/10/21 03:12:14;;;;;;;9.60;7.90;;;;;;;13.76;60.09;99111.36;229284;1197;138065;-76
2021/10/21 03:17:15;;;;;;;9.80;8.50;;;;;;;13.80;60.05;99105.67;228983;1196;138174;-75
2021/10/21 03:22:17;;;;;;;8.20;7.20;;;;;;;13.78;60.25;99103.27;229373;1197;139289;-75
2021/10/21 03:27:19;;;;;;;8.40;7.40;;;;;;;13.77;60.44;99100.08;229143;1196;138972;-76
2021/10/21 03:32:21;;;;;;;8.90;8.00;;;;;;;13.76;60.37;99090.88;229210;1196;138379;-74
2021/10/21 03:37:22;;;;;;;10.10;7.80;;;;;;;13.77;60.42;99070.25;229315;1196;138041;-73
2021/10/21 03:42:24;;;;;;;8.40;7.60;;;;;;;13.74;60.72;99052.98;228466;1197;138246;-74
2021/10/21 03:47:27;;;;;;;9.50;7.80;;;;;;;13.71;61.01;99042.20;228834;1198;139857;-74
2021/10/21 03:52:28;;;;;;;9.40;7.30;;;;;;;13.74;60.92;99025.94;228749;1197;140835;-75
2021/10/21 03:57:30;;;;;;;7.80;7.10;;;;;;;13.72;61.18;99017.16;228696;1199;138859;-73
2021/10/21 04:02:32;;;;;;;7.70;6.90;;;;;;;13.69;61.42;99018.18;229161;1190;139033;-75
2021/10/21 04:07:34;;;;;;;11.30;8.60;;;;;;;13.72;61.32;99026.77;228861;1197;138041;-74
2021/10/21 04:12:36;;;;;;;7.70;7.00;;;;;;;13.72;61.41;99033.79;228949;1189;138496;-75
2021/10/21 04:17:38;;;;;;;9.30;7.90;;;;;;;13.77;61.31;99019.84;228752;1196;138915;-76
2021/10/21 04:22:40;;;;;;;8.70;7.80;;;;;;;13.78;61.19;99014.24;228886;1197;138264;-74
2021/10/21 04:27:43;;;;;;;9.90;7.70;;;;;;;13.72;61.37;98998.56;228707;1196;138442;-74
2021/10/21 04:32:44;;;;;;;8.70;6.60;;;;;;;13.66;61.42;98974.92;228937;1197;138486;-80
2021/10/21 04:37:46;;;;;;;8.10;7.30;;;;;;;13.64;61.33;98969.17;229454;1197;138069;-73
2021/10/21 04:42:48;;;;;;;9.50;8.50;;;;;;;13.61;61.41;98948.73;229414;1197;138447;-77
2021/10/21 04:47:53;;;;;;;10.40;8.10;;;;;;;13.58;61.47;98942.23;230164;1196;140363;-75
2021/10/21 04:52:54;;;;;;;7.70;7.00;;;;;;;13.57;61.58;98957.95;229794;1196;138929;-75
2021/10/21 04:57:57;;;;;;;11.50;8.60;;;;;;;13.58;61.48;98934.15;229288;1197;139675;-74
2021/10/21 05:03:10;;;;;;;8.20;7.40;;;;;;;13.58;61.43;98938.48;229281;1196;139009;-75
2021/10/21 05:08:12;;;;;;;9.80;7.80;;;;;;;13.58;61.68;98945.67;229134;1197;138469;-74
2021/10/21 05:13:14;;;;;;;8.20;6.70;;;;;;;13.57;61.74;98935.09;230097;1190;138185;-75
2021/10/21 05:18:16;;;;;;;9.80;7.40;;;;;;;13.59;61.86;98926.08;230252;1196;138081;-73
2021/10/21 05:23:18;;;;;;;6.60;6.00;;;;;;;13.58;61.79;98913.52;229282;1197;138462;-75
2021/10/21 05:28:20;;;;;;;8.80;6.80;;;;;;;13.59;61.87;98911.15;229748;1196;138026;-73
2021/10/21 05:33:23;;;;;;;8.00;6.60;;;;;;;13.64;61.87;98903.17;229346;1196;138674;-75
2021/10/21 05:38:25;;;;;;;8.30;7.10;;;;;;;13.72;61.50;98905.22;229310;1196;139269;-75
2021/10/21 05:43:26;;;;;;;7.90;7.20;;;;;;;13.78;61.41;98895.29;228905;1196;139589;-74
2021/10/21 05:48:28;;;;;;;11.80;7.80;;;;;;;13.78;61.39;98888.02;228876;1197;139287;-75
2021/10/21 05:53:30;;;;;;;9.80;8.00;;;;;;;13.77;61.44;98886.22;228928;1196;138600;-75
2021/10/21 05:58:31;;;;;;;9.50;7.20;;;;;;;13.79;61.27;98890.53;229798;1196;138045;-75
2021/10/21 06:03:37;;;;;;;8.00;7.20;;;;;;;13.77;61.45;98887.18;229076;1190;138056;-75
2021/10/21 06:08:39;;;;;;;;;;;;;;;13.78;61.19;98878.93;229332;1196;138249;-76
2021/10/21 06:13:41;;;;;;;8.30;7.50;;;;;;;13.82;61.04;98865.28;229227;1196;124813;-75
2021/10/21 06:18:42;;;;;;;7.70;6.30;;;;;;;13.84;61.08;98852.44;229535;1196;138618;-74
2021/10/21 06:23:44;;;;;;;8.60;6.70;;;;;;;13.86;61.11;98850.60;233916;1196;138201;-75
2021/10/21 06:28:49;;;;;;;10.00;8.00;;;;;;;13.90;60.94;98845.55;234390;1196;138184;-74
2021/10/21 06:33:51;;;;;;;13.10;10.40;;;;;;;13.96;60.81;98853.11;233944;1196;138048;-75
2021/10/21 06:38:53;;;;;;;8.50;7.60;;;;;;;14.02;60.47;98847.89;231515;1196;138449;-74
2021/10/21 06:43:54;;;;;;;9.20;8.30;;;;;;;14.05;60.50;98850.16;229101;1197;138635;-74
2021/10/21 06:48:58;;;;;;;9.80;7.50;;;;;;;14.06;60.39;98857.27;229051;1197;138669;-77
2021/10/21 06:54:00;;;;;;;9.60;8.50;;;;;;;14.05;60.38;98861.93;229299;1190;138279;-75
2021/10/21 06:59:02;;;;;;;9.30;8.30;;;;;;;14.04;60.49;98872.67;230081;1197;138680;-75
2021/10/21 07:04:04;;;;;;;11.30;9.80;;;;;;;14.05;60.43;98875.98;232855;1196;138312;-76
2021/10/21 07:09:06;;;;;;;14.70;12.80;;;;;;;14.09;60.34;98887.83;230601;1197;138149;-75
2021/10/21 07:14:07;;;;;;;11.70;10.30;;;;;;;14.10;60.27;98899.74;230470;1197;138381;-74
2021/10/21 07:19:10;;;;;;;10.60;9.50;;;;;;;14.11;60.32;98893.21;229745;1197;138926;-74
2021/10/21 07:24:13;;;;;;;12.40;10.40;;;;;;;14.14;60.19;98891.40;229633;1197;138903;-75
2021/10/21 07:29:15;;;;;;;11.00;8.80;;;;;;;14.11;60.35;98876.00;229347;1197;139068;-74
2021/10/21 07:34:16;;;;;;;9.70;7.80;;;;;;;14.13;60.35;98861.89;229676;1196;138682;-74
2021/10/21 07:39:20;;;;;;;11.80;9.60;;;;;;;14.12;60.59;98863.86;228836;1196;138515;-75
2021/10/21 07:44:22;;;;;;;11.40;9.20;;;;;;;14.17;60.62;98851.48;228842;1197;138781;-76
2021/10/21 07:49:23;;;;;;;13.80;11.70;;;;;;;14.12;61.79;98847.30;229016;1197;138254;-74
2021/10/21 07:54:29;;;;;;;12.60;10.60;;;;;;;14.16;61.40;98844.50;228828;1197;138998;-73
2021/10/21 07:59:35;;;;;;;11.50;10.40;;;;;;;14.18;61.41;98835.53;229150;1204;138821;-75
2021/10/21 08:04:37;;;;;;;13.60;11.90;;;;;;;14.11;62.13;98845.63;229027;1197;138625;-75
2021/10/21 08:09:38;;;;;;;12.50;10.10;;;;;;;14.05;62.68;98845.91;228976;1197;138481;-75
2021/10/21 08:14:40;;;;;;;12.30;11.00;;;;;;;13.97;63.34;98830.80;229432;1196;139426;-76
2021/10/21 08:19:41;;;;;;;10.90;9.80;;;;;;;13.83;65.13;98858.58;229072;1189;138669;-75
2021/10/21 08:24:43;;;;;;;10.50;9.50;;;;;;;13.53;67.72;98841.33;229298;1197;138824;-73
2021/10/21 08:29:45;;;;;;;14.20;9.90;;;;;;;13.48;68.06;98827.10;229314;1196;139848;-74
2021/10/21 08:34:46;;;;;;;12.20;10.90;;;;;;;13.41;68.44;98826.89;228786;1200;138368;-74
2021/10/21 08:39:48;;;;;;;11.30;10.20;;;;;;;13.42;68.39;98827.63;228985;1205;140676;-77
2021/10/21 08:44:50;;;;;;;13.70;11.80;;;;;;;13.33;69.56;98832.17;230235;1196;139283;-76
2021/10/21 08:49:53;;;;;;;14.40;11.40;;;;;;;13.20;71.42;98843.14;229884;1196;138885;-74
2021/10/21 08:54:56;;;;;;;12.00;10.80;;;;;;;13.11;71.90;98833.40;230045;1196;138619;-74
2021/10/21 08:59:58;;;;;;;10.50;9.50;;;;;;;12.95;73.21;98819.84;229385;1196;138844;-75
2021/10/21 09:05:30;;;;;;;12.30;11.00;;;;;;;12.69;75.25;98814.89;229443;1196;139000;-75
2021/10/21 09:10:32;;;;;;;14.90;11.60;;;;;;;12.54;76.44;98804.59;229309;1196;140021;-76
2021/10/21 09:15:34;;;;;;;11.80;10.60;;;;;;;12.41;77.27;98789.06;229349;1196;138650;-76
2021/10/21 09:20:39;;;;;;;11.90;10.30;;;;;;;12.32;78.11;98769.42;229264;1196;138941;-76
2021/10/21 09:25:41;;;;;;;14.10;12.00;;;;;;;12.29;78.32;98747.53;229241;1196;139029;-77
2021/10/21 09:31:10;;;;;;;10.90;9.90;;;;;;;12.26;78.33;98765.95;228960;1196;138695;-76
2021/10/21 09:36:12;;;;;;;13.80;11.70;;;;;;;12.34;78.08;98743.58;228899;1196;138960;-75
2021/10/21 09:41:19;;;;;;;13.80;11.50;;;;;;;12.41;77.82;98725.63;229296;1196;138253;-74
2021/10/21 09:46:41;;;;;;;12.20;10.90;;;;;;;12.43;78.21;98718.77;229119;1196;138846;-77
2021/10/21 09:51:45;;;;;;;15.30;12.20;;;;;;;12.46;77.78;98701.13;229093;1196;139425;-77
2021/10/21 09:57:06;;;;;;;15.20;13.30;;;;;;;12.57;77.53;98693.11;229817;1196;138910;-75
2021/10/21 10:02:16;;;;;;;11.90;10.70;;;;;;;12.63;77.60;98682.70;228969;1196;138997;-76
2021/10/21 10:07:20;;;;;;;13.30;11.90;;;;;;;12.73;76.81;98680.02;228935;1200;139341;-76
2021/10/21 10:12:21;;;;;;;13.50;12.10;;;;;;;12.85;76.32;98682.30;228925;1197;139369;-72
2021/10/21 10:17:24;;;;;;;13.50;12.20;;;;;;;12.94;75.81;98686.48;228815;1196;139291;-72
2021/10/21 10:22:36;;;;;;;12.80;10.90;;;;;;;13.01;75.51;98662.66;229709;1196;139382;-73
2021/10/21 10:27:52;;;;;;;12.30;11.00;;;;;;;13.13;74.83;98656.98;229294;1196;139153;-74
2021/10/21 10:32:54;;;;;;;11.60;10.00;;;;;;;13.23;74.36;98640.62;229011;1196;138597;-74
2021/10/21 10:38:00;;;;;;;11.20;10.20;;;;;;;13.32;73.48;98627.20;228940;1197;140376;-76
2021/10/21 10:43:02;;;;;;;11.80;10.70;;;;;;;13.40;73.24;98632.43;228919;1199;138989;-75
2021/10/21 10:48:04;;;;;;;13.10;11.80;;;;;;;13.47;72.55;98622.52;229860;1197;138703;-75
2021/10/21 10:53:07;;;;;;;12.30;11.10;;;;;;;13.56;72.04;98602.13;228901;1196;138375;-75
2021/10/21 10:58:35;;;;;;;12.40;11.10;;;;;;;13.63;71.68;98569.13;229294;1197;138806;-74
2021/10/21 11:03:41;;;;;;;12.30;11.00;;;;;;;13.73;70.91;98554.27;228907;1197;139456;-73
2021/10/21 11:09:06;;;;;;;11.90;10.70;;;;;;;13.81;70.60;98538.42;228979;1196;139279;-76
2021/10/21 11:14:08;;;;;;;;;;;;;;;13.82;70.83;98531.17;228959;1197;139374;-74
2021/10/21 11:19:12;;;;;;;11.60;10.50;;;;;;;13.86;70.81;98536.13;229193;1189;125226;-76
2021/10/21 11:24:50;;;;;;;12.90;11.50;;;;;;;13.92;70.66;98533.52;229351;1190;139106;-76
2021/10/21 11:29:53;;;;;;;11.80;10.40;;;;;;;14.03;70.26;98529.55;229590;1197;138463;-75
2021/10/21 11:34:55;;;;;;;10.20;9.30;;;;;;;14.06;70.30;98503.67;229821;1196;138869;-75
2021/10/21 11:39:56;;;;;;;10.70;9.50;;;;;;;14.32;68.63;98518.64;229168;1196;139026;-75
2021/10/21 11:45:17;;;;;;;11.60;10.50;;;;;;;14.48;68.13;98502.89;229038;1196;138586;-76
2021/10/21 11:50:29;;;;;;;9.90;8.60;;;;;;;14.53;67.77;98492.34;229047;1196;138951;-74
2021/10/21 11:55:32;;;;;;;10.50;8.50;;;;;;;14.67;67.25;98478.21;230017;1196;138586;-77
2021/10/21 12:00:34;;;;;;;10.30;8.80;;;;;;;14.76;66.80;98479.66;229462;1196;138652;-74
2021/10/21 12:05:40;;;;;;;10.00;9.00;;;;;;;14.83;66.52;98475.97;229147;1196;138668;-76
2021/10/21 12:10:43;;;;;;;;;;;;;;;14.91;66.05;98492.17;229201;1196;138916;-74
2021/10/21 12:15:45;;;;;;;9.60;8.70;;;;;;;15.00;65.62;98489.95;230982;1196;125022;-72
2021/10/21 12:20:51;;;;;;;9.30;8.50;;;;;;;15.12;64.80;98489.08;230617;1196;137840;-74
2021/10/21 12:25:59;;;;;;;9.70;7.10;;;;;;;15.24;63.86;98487.64;232195;1196;138255;-75
2021/10/21 12:31:27;;;;;;;7.20;6.20;;;;;;;15.32;63.10;98478.05;229317;1197;138097;-77
2021/10/21 12:36:32;;;;;;;6.40;5.80;;;;;;;15.46;61.81;98477.57;229506;1196;138767;-75
2021/10/21 12:42:00;;;;;;;6.80;5.70;;;;;;;15.62;60.33;98468.39;229145;1196;139793;-74
2021/10/21 12:47:13;;;;;;;7.70;6.30;;;;;;;15.63;60.12;98468.58;229052;1196;138468;-75
2021/10/21 12:52:15;;;;;;;6.70;5.50;;;;;;;15.71;58.93;98457.82;229419;1196;138174;-75
2021/10/21 12:57:20;;;;;;;8.20;5.70;;;;;;;15.73;58.68;98457.53;229447;1196;138393;-74
2021/10/21 13:02:27;;;;;;;7.30;5.50;;;;;;;15.80;58.02;98457.05;230126;1196;139003;-77
2021/10/21 13:07:28;;;;;;;9.90;5.60;;;;;;;15.84;57.95;98457.19;229283;1196;138659;-76
2021/10/21 13:12:30;;;;;;;6.70;5.30;;;;;;;15.90;57.88;98464.13;229001;1196;138635;-75
2021/10/21 13:17:31;;;;;;;11.70;6.50;;;;;;;16.01;57.47;98475.23;229201;1196;138097;-76
2021/10/21 13:22:33;;;;;;;6.00;5.40;;;;;;;16.11;57.03;98458.80;229364;1196;138646;-75
2021/10/21 13:27:36;;;;;;;7.20;5.40;;;;;;;16.04;57.65;98474.39;229466;1196;139084;-72
2021/10/21 13:32:38;;;;;;;6.80;4.90;;;;;;;16.03;57.24;98460.92;230121;1196;138186;-77
2021/10/21 13:37:40;;;;;;;7.90;5.20;;;;;;;16.08;56.82;98461.61;229795;1196;138263;-76
2021/10/21 13:42:45;;;;;;;6.70;5.30;;;;;;;16.25;56.00;98465.96;229350;1196;138146;-75
2021/10/21 13:47:46;;;;;;;7.60;5.80;;;;;;;16.46;55.36;98464.33;229107;1196;138323;-75
2021/10/21 13:52:48;;;;;;;7.70;4.50;;;;;;;16.35;55.39;98472.92;229249;1196;138718;-74
2021/10/21 13:57:51;;;;;;;6.90;4.90;;;;;;;16.23;55.53;98480.58;229843;1196;138861;-76
2021/10/21 14:02:53;;;;;;;7.30;5.10;;;;;;;16.21;55.56;98486.52;228984;1196;139412;-76
2021/10/21 14:07:54;;;;;;;8.60;4.80;;;;;;;16.49;54.20;98477.15;229910;1196;137989;-75
2021/10/21 14:12:58;;;;;;;6.00;4.10;;;;;;;16.37;54.10;98471.20;229700;1196;137919;-78
2021/10/21 14:18:00;;;;;;;6.30;4.20;;;;;;;16.30;53.61;98474.74;229958;1196;138666;-74
2021/10/21 14:23:02;;;;;;;6.10;4.00;;;;;;;16.27;53.66;98477.40;229174;1196;137878;-75
2021/10/21 14:28:03;;;;;;;7.20;3.40;;;;;;;16.29;52.94;98479.14;229614;1196;139418;-74
2021/10/21 14:33:05;;;;;;;9.40;4.40;;;;;;;16.28;53.00;98487.60;229151;1196;138445;-76
2021/10/21 14:38:07;;;;;;;11.80;3.50;;;;;;;16.28;52.77;98488.72;229108;1196;138298;-75
2021/10/21 14:43:08;;;;;;;8.00;3.40;;;;;;;16.14;52.98;98508.48;229485;1196;138383;-74
2021/10/21 14:48:10;;;;;;;6.00;2.70;;;;;;;16.28;50.34;98511.96;229011;1199;138191;-75
2021/10/21 14:53:12;;;;;;;5.60;1.70;;;;;;;16.40;47.92;98530.70;229025;1196;138160;-74
2021/10/21 14:58:14;;;;;;;17.40;1.70;;;;;;;16.57;45.36;98533.98;229505;1190;138016;-75
2021/10/21 15:03:19;;;;;;;20.60;1.60;;;;;;;16.69;43.57;98569.80;229659;1196;138224;-76
2021/10/21 15:08:35;;;;;;;13.80;1.70;;;;;;;16.69;43.09;98564.72;229933;1196;138244;-80
2021/10/21 15:14:01;;;;;;;9.90;1.10;;;;;;;16.63;43.14;98571.48;230173;1196;138732;-76
2021/10/21 15:24:24;;;;;;;15.70;1.40;;;;;;;16.50;43.52;98619.59;230026;1196;138703;-77
2021/10/21 15:29:29;;;;;;;18.40;2.80;;;;;;;16.47;43.63;98632.18;227772;1196;1537743;-77
2021/10/21 15:34:31;;;;;;;;;;;;;;;16.30;44.36;98659.64;230354;1195;139447;-76
2021/10/21 15:39:50;;;;;;;26.10;2.20;;;;;;;16.13;45.61;98683.08;230479;1196;124942;-81
2021/10/21 15:50:05;;;;;;;25.10;2.00;;;;;;;15.28;48.87;98726.59;232429;1196;138637;-79
2021/10/21 16:16:26;;;;;;;26.00;2.40;;;;;;;14.80;50.22;98844.70;230131;1196;139625;-73
2021/10/21 16:21:30;;;;;;;16.10;1.50;;;;;;;14.67;50.37;98849.08;229206;1196;138154;-77
2021/10/21 16:26:34;;;;;;;20.50;2.50;;;;;;;14.50;51.30;98864.16;230200;1196;138744;-78
2021/10/21 16:31:36;;;;;;;19.20;1.10;;;;;;;14.36;52.39;98898.02;230143;1196;138139;-74
2021/10/21 16:36:38;;;;;;;9.20;0.90;;;;;;;14.17;53.31;98911.25;229965;1196;138623;-76
2021/10/21 16:41:40;;;;;;;13.20;1.50;;;;;;;14.05;53.77;98914.98;230074;1196;138371;-79
2021/10/21 16:46:42;;;;;;;8.90;0.70;;;;;;;13.92;54.21;98930.77;229915;1196;138222;-75
2021/10/21 16:51:44;;;;;;;8.60;0.80;;;;;;;13.79;55.23;98944.63;230299;1190;137999;-79
2021/10/21 16:56:46;;;;;;;11.40;1.40;;;;;;;13.67;56.08;98974.93;230153;1196;138975;-76
2021/10/21 17:01:47;;;;;;;11.10;1.10;;;;;;;13.62;54.91;99002.75;229398;1196;138996;-77
2021/10/21 17:06:49;;;;;;;12.70;1.00;;;;;;;13.57;54.32;98997.65;229855;1196;138094;-78
2021/10/21 17:11:51;;;;;;;7.50;1.20;;;;;;;13.41;54.83;98989.55;229413;1197;138247;-76
2021/10/21 17:16:53;;;;;;;5.50;0.90;;;;;;;13.21;55.71;99001.66;230058;1196;138434;-75
2021/10/21 17:21:54;;;;;;;6.30;1.30;;;;;;;12.99;56.13;99015.52;229527;1196;138335;-75
2021/10/21 17:26:56;;;;;;;5.60;1.20;;;;;;;12.91;56.75;99023.95;229855;1196;139026;-77
2021/10/21 17:31:58;;;;;;;10.80;1.40;;;;;;;12.88;57.14;99036.71;229992;1196;138707;-78
2021/10/21 17:37:02;;;;;;;7.60;1.10;;;;;;;12.84;56.96;99036.45;231102;1196;139108;-77
2021/10/21 17:42:07;;;;;;;8.00;2.30;;;;;;;12.84;56.59;99042.73;230471;1196;138093;-74
2021/10/21 17:47:09;;;;;;;5.00;1.10;;;;;;;12.85;56.60;99053.02;230004;1196;138348;-75
2021/10/21 17:52:10;;;;;;;8.40;1.50;;;;;;;12.87;56.53;99059.36;229773;1196;138434;-78
2021/10/21 17:57:15;;;;;;;11.80;1.60;;;;;;;12.78;56.72;99074.09;229820;1196;138721;-75
2021/10/21 18:02:17;;;;;;;6.00;1.10;;;;;;;12.84;56.06;99070.64;229814;1196;138782;-78
2021/10/21 18:07:19;;;;;;;5.00;1.80;;;;;;;12.89;55.89;99079.98;230069;1196;138477;-77
2021/10/21 18:12:20;;;;;;;9.40;1.90;;;;;;;12.85;54.62;99084.55;230249;1196;138339;-79
2021/10/21 18:17:22;;;;;;;7.50;1.10;;;;;;;12.82;54.52;99085.48;229913;1196;139149;-77
2021/10/21 18:22:24;;;;;;;6.70;1.40;;;;;;;12.78;54.53;99085.30;229834;1196;138180;-77
2021/10/21 18:27:30;;;;;;;10.20;1.50;;;;;;;12.65;54.78;99084.55;229900;1196;139297;-78
2021/10/21 18:32:32;;;;;;;5.90;1.40;;;;;;;12.56;54.90;99084.85;229756;1196;138990;-77
2021/10/21 18:37:34;;;;;;;5.40;1.30;;;;;;;12.58;54.33;99085.03;229919;1197;138464;-78
2021/10/21 18:42:36;;;;;;;7.90;2.10;;;;;;;12.45;54.75;99084.81;229981;1196;139309;-79
2021/10/21 18:47:38;;;;;;;6.90;1.60;;;;;;;12.43;54.39;99097.20;229758;1196;138412;-77
2021/10/21 18:52:40;;;;;;;15.30;1.90;;;;;;;12.32;54.36;99100.04;230071;1196;138469;-77
2021/10/21 18:57:42;;;;;;;6.80;1.60;;;;;;;12.30;53.64;99097.98;230166;1196;138520;-77
2021/10/21 19:02:44;;;;;;;10.10;1.40;;;;;;;12.25;53.48;99098.66;230679;1196;138860;-77
2021/10/21 19:07:46;;;;;;;9.50;1.90;;;;;;;12.17;53.05;99109.45;230047;1196;138958;-76
2021/10/21 19:12:48;;;;;;;7.50;1.60;;;;;;;12.15;52.63;99116.20;230717;1196;139692;-77
2021/10/21 19:17:50;;;;;;;5.70;1.60;;;;;;;12.04;52.60;99108.75;232362;1196;139371;-78
2021/10/21 19:22:53;;;;;;;8.00;1.20;;;;;;;12.01;51.68;99111.88;231184;1181;138281;-75
2021/10/21 19:27:56;;;;;;;6.20;1.10;;;;;;;12.02;50.95;99106.83;232060;1196;137897;-75
2021/10/21 19:32:59;;;;;;;9.90;1.40;;;;;;;11.96;50.78;99105.12;229853;1196;137979;-78
2021/10/21 19:38:01;;;;;;;7.10;1.40;;;;;;;11.94;50.02;99110.73;229822;1196;138766;-77
2021/10/21 19:43:05;;;;;;;9.00;1.70;;;;;;;11.88;50.06;99112.28;230145;1196;138229;-77
2021/10/21 19:48:07;;;;;;;8.70;2.20;;;;;;;11.85;49.80;99110.58;230409;1195;138483;-76
2021/10/21 19:53:09;;;;;;;6.50;1.50;;;;;;;11.85;49.39;99111.67;230103;1196;139076;-76
2021/10/21 19:58:11;;;;;;;6.10;1.40;;;;;;;11.79;49.75;99116.47;230500;1196;138436;-76
2021/10/21 20:03:15;;;;;;;6.80;1.40;;;;;;;11.73;49.86;99123.56;230147;1196;138512;-76
2021/10/21 20:08:16;;;;;;;5.70;1.30;;;;;;;11.73;49.96;99119.63;230185;1196;138103;-76
2021/10/21 20:13:18;;;;;;;7.80;1.60;;;;;;;11.67;50.57;99111.42;230130;1196;137911;-77
2021/10/21 20:18:21;;;;;;;5.30;1.30;;;;;;;11.60;51.28;99115.69;230074;1196;138534;-75
2021/10/21 20:23:23;;;;;;;3.20;1.00;;;;;;;11.64;51.32;99120.32;230696;1196;138069;-76
2021/10/21 20:28:24;;;;;;;5.20;1.50;;;;;;;11.56;52.04;99116.55;230180;1196;138815;-75
2021/10/21 20:33:32;;;;;;;4.20;1.20;;;;;;;11.51;52.43;99110.15;229918;1197;138433;-78
2021/10/21 20:38:34;;;;;;;4.90;1.40;;;;;;;11.47;52.95;99105.00;229668;1196;138497;-77
2021/10/21 20:43:38;;;;;;;4.10;1.50;;;;;;;11.40;53.40;99103.99;229996;1195;138477;-76
2021/10/21 20:48:39;;;;;;;4.20;1.00;;;;;;;11.38;53.72;99099.70;230041;1196;138275;-76
2021/10/21 20:53:41;;;;;;;3.10;1.20;;;;;;;11.34;53.90;99102.93;229632;1196;138500;-75
2021/10/21 20:58:44;;;;;;;3.00;1.00;;;;;;;11.32;54.18;99090.17;230392;1197;138929;-76
2021/10/21 21:03:46;;;;;;;5.80;2.00;;;;;;;11.38;53.74;99085.41;230317;1199;138587;-76
2021/10/21 21:08:47;;;;;;;2.30;1.20;;;;;;;11.36;53.92;99095.70;230166;1196;138899;-77
2021/10/21 21:13:49;;;;;;;2.70;1.00;;;;;;;11.37;53.96;99095.51;230207;1196;138026;-76
2021/10/21 21:18:51;;;;;;;2.00;1.50;;;;;;;11.32;54.04;99085.32;230052;1196;138112;-79
2021/10/21 21:23:53;;;;;;;3.20;1.30;;;;;;;11.35;53.97;99086.14;230237;1195;138033;-76
2021/10/21 21:28:56;;;;;;;2.40;1.20;;;;;;;11.31;54.23;99086.21;229901;1197;138684;-76
2021/10/21 21:33:58;;;;;;;5.90;1.00;;;;;;;11.36;53.69;99087.07;230201;1197;137994;-77
2021/10/21 21:39:01;;;;;;;3.60;1.00;;;;;;;11.38;53.68;99084.20;230264;1196;138159;-76
2021/10/21 21:44:04;;;;;;;2.50;1.10;;;;;;;11.28;54.18;99078.83;230439;1196;137981;-77
2021/10/21 21:49:05;;;;;;;2.50;1.00;;;;;;;11.26;54.47;99092.32;230385;1188;138006;-75
2021/10/21 21:54:07;;;;;;;1.50;1.00;;;;;;;11.26;54.50;99085.30;230098;1200;138459;-76
2021/10/21 21:59:09;;;;;;;2.40;1.20;;;;;;;11.27;54.70;99082.34;230212;1180;138259;-75
2021/10/21 22:04:10;;;;;;;2.70;1.00;;;;;;;11.23;54.95;99077.71;229422;1196;138084;-75
2021/10/21 22:09:12;;;;;;;3.40;1.10;;;;;;;11.18;55.14;99084.83;229924;1197;138032;-76
2021/10/21 22:14:18;;;;;;;3.50;1.10;;;;;;;11.17;55.21;99084.98;230143;1197;138423;-76
2021/10/21 22:19:40;;;;;;;1.70;1.00;;;;;;;11.12;55.56;99088.77;230898;1196;137905;-77
2021/10/21 22:24:42;;;;;;;3.90;1.20;;;;;;;11.12;55.31;99095.87;235982;1195;136924;-74
2021/10/21 22:29:46;;;;;;;2.30;1.00;;;;;;;11.12;55.28;99092.86;235721;1195;137169;-78
2021/10/21 22:34:50;;;;;;;3.60;2.00;;;;;;;11.12;54.99;99093.19;234281;1195;138202;-75
2021/10/21 22:39:52;;;;;;;2.60;1.30;;;;;;;11.18;54.64;99105.63;230919;1196;139327;-75
2021/10/21 22:44:54;;;;;;;2.80;1.30;;;;;;;11.23;54.42;99112.98;231721;1196;138323;-76
2021/10/21 22:49:55;;;;;;;3.30;1.10;;;;;;;11.14;54.62;99111.69;231592;1190;138093;-76
2021/10/21 22:54:57;;;;;;;3.90;1.40;;;;;;;11.22;54.04;99115.10;232432;1196;138359;-76
2021/10/21 23:00:08;;;;;;;4.00;1.20;;;;;;;11.19;54.23;99121.66;230867;1196;138090;-75
2021/10/21 23:05:10;;;;;;;4.40;1.10;;;;;;;11.25;54.02;99131.20;229623;1196;139211;-75
2021/10/21 23:10:11;;;;;;;2.50;1.50;;;;;;;11.31;53.65;99131.55;229492;1196;138908;-76
2021/10/21 23:15:13;;;;;;;3.90;1.40;;;;;;;11.36;53.38;99140.70;230451;1196;137974;-76
2021/10/21 23:20:15;;;;;;;3.10;1.30;;;;;;;11.39;53.21;99138.04;229477;1196;137982;-75
2021/10/21 23:25:17;;;;;;;1.70;1.40;;;;;;;11.39;53.00;99138.91;229725;1196;138456;-76
2021/10/21 23:30:19;;;;;;;2.10;1.00;;;;;;;11.36;53.34;99138.88;229555;1197;138526;-76
2021/10/21 23:35:21;;;;;;;3.90;0.90;;;;;;;11.36;53.23;99150.77;229337;1196;137966;-76
2021/10/21 23:40:22;;;;;;;5.30;2.00;;;;;;;11.32;53.74;99150.48;229461;1197;139013;-74